sensor_id;sensor_type;location;lat;lon;timestamp;temperature;humidity
59469;DHT22;45277;52.768;18.262;2024-03-22T00:00:19;9.00;99.90
59469;DHT22;45277;52.768;18.262;2024-03-22T00:02:10;9.00;99.90
59469;DHT22;45277;52.768;18.262;2024-03-22T00:03:41;9.00;99.90
59469;DHT22;45277;52.768;18.262;2024-03-22T00:05:13;8.90;99.90
59469;DHT22;45277;52.768;18.262;2024-03-22T00:06:47;9.00;99.90
59469;DHT22;45277;52.768;18.262;2024-03-22T00:08:19;9.00;99.90
59469;DHT22;45277;52.768;18.262;2024-03-22T00:09:50;9.00;99.90
59469;DHT22;45277;52.768;18.262;2024-03-22T00:11:21;8.90;99.90
59469;DHT22;45277;52.768;18.262;2024-03-22T00:12:52;8.90;99.90
59469;DHT22;45277;52.768;18.262;2024-03-22T00:14:24;8.90;99.90
59469;DHT22;45277;52.768;18.262;2024-03-22T00:15:55;8.90;99.90
59469;DHT22;45277;52.768;18.262;2024-03-22T00:17:26;8.90;99.90
59469;DHT22;45277;52.768;18.262;2024-03-22T00:18:57;8.90;99.90
59469;DHT22;45277;52.768;18.262;2024-03-22T00:20:28;8.80;99.90
59469;DHT22;45277;52.768;18.262;2024-03-22T00:22:00;8.80;99.90
59469;DHT22;45277;52.768;18.262;2024-03-22T00:23:31;8.70;99.90
59469;DHT22;45277;52.768;18.262;2024-03-22T00:25:02;8.70;99.90
59469;DHT22;45277;52.768;18.262;2024-03-22T00:26:34;8.60;99.90
59469;DHT22;45277;52.768;18.262;2024-03-22T00:28:05;8.60;99.90
59469;DHT22;45277;52.768;18.262;2024-03-22T00:29:36;8.60;99.90
59469;DHT22;45277;52.768;18.262;2024-03-22T00:31:08;8.60;99.90
59469;DHT22;45277;52.768;18.262;2024-03-22T00:32:40;8.50;99.90
59469;DHT22;45277;52.768;18.262;2024-03-22T00:34:11;8.50;99.90
59469;DHT22;45277;52.768;18.262;2024-03-22T00:35:42;8.50;99.90
59469;DHT22;45277;52.768;18.262;2024-03-22T00:37:13;8.50;99.90
59469;DHT22;45277;52.768;18.262;2024-03-22T00:38:46;8.40;99.90
59469;DHT22;45277;52.768;18.262;2024-03-22T00:40:17;8.40;99.90
59469;DHT22;45277;52.768;18.262;2024-03-22T00:41:48;8.40;99.90
59469;DHT22;45277;52.768;18.262;2024-03-22T00:43:20;8.40;99.90
59469;DHT22;45277;52.768;18.262;2024-03-22T00:44:51;8.30;99.90
59469;DHT22;45277;52.768;18.262;2024-03-22T00:46:23;8.30;99.90
59469;DHT22;45277;52.768;18.262;2024-03-22T00:47:54;8.30;99.90
59469;DHT22;45277;52.768;18.262;2024-03-22T00:49:25;8.30;99.90
59469;DHT22;45277;52.768;18.262;2024-03-22T00:50:57;8.30;99.90
59469;DHT22;45277;52.768;18.262;2024-03-22T00:52:28;8.30;99.90
59469;DHT22;45277;52.768;18.262;2024-03-22T00:53:59;8.20;99.90
59469;DHT22;45277;52.768;18.262;2024-03-22T00:55:31;8.20;99.90
59469;DHT22;45277;52.768;18.262;2024-03-22T00:57:02;8.20;99.90
59469;DHT22;45277;52.768;18.262;2024-03-22T00:58:33;8.10;99.90
59469;DHT22;45277;52.768;18.262;2024-03-22T01:00:05;8.10;99.90
59469;DHT22;45277;52.768;18.262;2024-03-22T01:01:36;8.10;99.90
59469;DHT22;45277;52.768;18.262;2024-03-22T01:03:09;8.10;99.90
59469;DHT22;45277;52.768;18.262;2024-03-22T01:04:40;8.10;99.90
59469;DHT22;45277;52.768;18.262;2024-03-22T01:06:11;8.10;99.90
59469;DHT22;45277;52.768;18.262;2024-03-22T01:07:43;8.10;99.90
59469;DHT22;45277;52.768;18.262;2024-03-22T01:09:14;8.10;99.90
59469;DHT22;45277;52.768;18.262;2024-03-22T01:10:46;8.10;99.90
59469;DHT22;45277;52.768;18.262;2024-03-22T01:12:17;8.10;99.90
59469;DHT22;45277;52.768;18.262;2024-03-22T01:13:48;8.10;99.90
59469;DHT22;45277;52.768;18.262;2024-03-22T01:15:20;8.10;99.90
59469;DHT22;45277;52.768;18.262;2024-03-22T01:16:51;8.10;99.90
59469;DHT22;45277;52.768;18.262;2024-03-22T01:18:22;8.00;99.90
59469;DHT22;45277;52.768;18.262;2024-03-22T01:19:53;8.00;99.90
59469;DHT22;45277;52.768;18.262;2024-03-22T01:21:25;8.00;99.90
59469;DHT22;45277;52.768;18.262;2024-03-22T01:22:58;7.90;99.90
59469;DHT22;45277;52.768;18.262;2024-03-22T01:24:29;7.90;99.90
59469;DHT22;45277;52.768;18.262;2024-03-22T01:26:01;8.00;99.90
59469;DHT22;45277;52.768;18.262;2024-03-22T01:27:32;7.90;99.90
59469;DHT22;45277;52.768;18.262;2024-03-22T01:29:03;7.90;99.90
59469;DHT22;45277;52.768;18.262;2024-03-22T01:30:35;7.90;99.90
59469;DHT22;45277;52.768;18.262;2024-03-22T01:32:07;7.90;99.90
59469;DHT22;45277;52.768;18.262;2024-03-22T01:33:38;7.80;99.90
59469;DHT22;45277;52.768;18.262;2024-03-22T01:35:10;7.80;99.90
59469;DHT22;45277;52.768;18.262;2024-03-22T01:36:41;7.80;99.90
59469;DHT22;45277;52.768;18.262;2024-03-22T01:38:12;7.80;99.90
59469;DHT22;45277;52.768;18.262;2024-03-22T01:39:43;7.80;99.90
59469;DHT22;45277;52.768;18.262;2024-03-22T01:41:15;7.80;99.90
59469;DHT22;45277;52.768;18.262;2024-03-22T01:42:46;7.70;99.90
59469;DHT22;45277;52.768;18.262;2024-03-22T01:44:18;7.80;99.90
59469;DHT22;45277;52.768;18.262;2024-03-22T01:45:49;7.80;99.90
59469;DHT22;45277;52.768;18.262;2024-03-22T01:47:21;7.70;99.90
59469;DHT22;45277;52.768;18.262;2024-03-22T01:48:52;7.70;99.90
59469;DHT22;45277;52.768;18.262;2024-03-22T01:50:24;7.70;99.90
59469;DHT22;45277;52.768;18.262;2024-03-22T01:51:55;7.70;99.90
59469;DHT22;45277;52.768;18.262;2024-03-22T01:53:26;7.70;99.90
59469;DHT22;45277;52.768;18.262;2024-03-22T01:54:58;7.70;99.90
59469;DHT22;45277;52.768;18.262;2024-03-22T01:56:29;7.60;99.90
59469;DHT22;45277;52.768;18.262;2024-03-22T01:58:01;7.60;99.90
59469;DHT22;45277;52.768;18.262;2024-03-22T01:59:34;7.60;99.90
59469;DHT22;45277;52.768;18.262;2024-03-22T02:01:05;7.60;99.90
59469;DHT22;45277;52.768;18.262;2024-03-22T02:02:37;7.60;99.90
59469;DHT22;45277;52.768;18.262;2024-03-22T02:04:09;7.60;99.90
59469;DHT22;45277;52.768;18.262;2024-03-22T02:05:40;7.60;99.90
59469;DHT22;45277;52.768;18.262;2024-03-22T02:07:12;7.60;99.90
59469;DHT22;45277;52.768;18.262;2024-03-22T02:08:43;7.60;99.90
59469;DHT22;45277;52.768;18.262;2024-03-22T02:10:15;7.60;99.90
59469;DHT22;45277;52.768;18.262;2024-03-22T02:11:47;7.60;99.90
59469;DHT22;45277;52.768;18.262;2024-03-22T02:13:19;7.60;99.90
59469;DHT22;45277;52.768;18.262;2024-03-22T02:14:50;7.60;99.90
59469;DHT22;45277;52.768;18.262;2024-03-22T02:16:22;7.60;99.90
59469;DHT22;45277;52.768;18.262;2024-03-22T02:17:53;7.60;99.90
59469;DHT22;45277;52.768;18.262;2024-03-22T02:19:24;7.60;99.90
59469;DHT22;45277;52.768;18.262;2024-03-22T02:20:57;7.60;99.90
59469;DHT22;45277;52.768;18.262;2024-03-22T02:22:28;7.60;99.90
59469;DHT22;45277;52.768;18.262;2024-03-22T02:23:59;7.60;99.90
59469;DHT22;45277;52.768;18.262;2024-03-22T02:25:30;7.60;99.90
59469;DHT22;45277;52.768;18.262;2024-03-22T02:27:01;7.60;99.90
59469;DHT22;45277;52.768;18.262;2024-03-22T02:28:34;7.50;99.90
59469;DHT22;45277;52.768;18.262;2024-03-22T02:30:07;7.60;99.90
59469;DHT22;45277;52.768;18.262;2024-03-22T02:31:38;7.60;99.90
59469;DHT22;45277;52.768;18.262;2024-03-22T02:33:09;7.60;99.90
59469;DHT22;45277;52.768;18.262;2024-03-22T02:34:41;7.60;99.90
59469;DHT22;45277;52.768;18.262;2024-03-22T02:36:12;7.60;99.90
59469;DHT22;45277;52.768;18.262;2024-03-22T02:37:43;7.60;99.90
59469;DHT22;45277;52.768;18.262;2024-03-22T02:39:14;7.60;99.90
59469;DHT22;45277;52.768;18.262;2024-03-22T02:40:47;7.60;99.90
59469;DHT22;45277;52.768;18.262;2024-03-22T02:42:18;7.50;99.90
59469;DHT22;45277;52.768;18.262;2024-03-22T02:43:50;7.50;99.90
59469;DHT22;45277;52.768;18.262;2024-03-22T02:45:21;7.50;99.90
59469;DHT22;45277;52.768;18.262;2024-03-22T02:46:52;7.50;99.90
59469;DHT22;45277;52.768;18.262;2024-03-22T02:48:24;7.50;99.90
59469;DHT22;45277;52.768;18.262;2024-03-22T02:49:55;7.50;99.90
59469;DHT22;45277;52.768;18.262;2024-03-22T02:51:26;7.50;99.90
59469;DHT22;45277;52.768;18.262;2024-03-22T02:52:57;7.50;99.90
59469;DHT22;45277;52.768;18.262;2024-03-22T02:54:28;7.50;99.90
59469;DHT22;45277;52.768;18.262;2024-03-22T02:56:00;7.50;99.90
59469;DHT22;45277;52.768;18.262;2024-03-22T02:57:32;7.50;99.90
59469;DHT22;45277;52.768;18.262;2024-03-22T02:59:03;7.50;99.90
59469;DHT22;45277;52.768;18.262;2024-03-22T03:00:37;7.40;99.90
59469;DHT22;45277;52.768;18.262;2024-03-22T03:02:12;7.40;99.90
59469;DHT22;45277;52.768;18.262;2024-03-22T03:03:43;7.40;99.90
59469;DHT22;45277;52.768;18.262;2024-03-22T03:05:15;7.40;99.90
59469;DHT22;45277;52.768;18.262;2024-03-22T03:06:46;7.40;99.90
59469;DHT22;45277;52.768;18.262;2024-03-22T03:08:17;7.40;99.90
59469;DHT22;45277;52.768;18.262;2024-03-22T03:09:48;7.40;99.90
59469;DHT22;45277;52.768;18.262;2024-03-22T03:11:20;7.30;99.90
59469;DHT22;45277;52.768;18.262;2024-03-22T03:12:51;7.30;99.90
59469;DHT22;45277;52.768;18.262;2024-03-22T03:14:22;7.30;99.90
59469;DHT22;45277;52.768;18.262;2024-03-22T03:15:53;7.30;99.90
59469;DHT22;45277;52.768;18.262;2024-03-22T03:17:25;7.30;99.90
59469;DHT22;45277;52.768;18.262;2024-03-22T03:18:56;7.30;99.90
59469;DHT22;45277;52.768;18.262;2024-03-22T03:20:27;7.30;99.90
59469;DHT22;45277;52.768;18.262;2024-03-22T03:21:59;7.30;99.90
59469;DHT22;45277;52.768;18.262;2024-03-22T03:23:30;7.30;99.90
59469;DHT22;45277;52.768;18.262;2024-03-22T03:25:03;7.30;99.90
59469;DHT22;45277;52.768;18.262;2024-03-22T03:26:35;7.30;99.90
59469;DHT22;45277;52.768;18.262;2024-03-22T03:28:06;7.30;99.90
59469;DHT22;45277;52.768;18.262;2024-03-22T03:29:38;7.30;99.90
59469;DHT22;45277;52.768;18.262;2024-03-22T03:31:09;7.30;99.90
59469;DHT22;45277;52.768;18.262;2024-03-22T03:32:41;7.30;99.90
59469;DHT22;45277;52.768;18.262;2024-03-22T03:34:12;7.30;99.90
59469;DHT22;45277;52.768;18.262;2024-03-22T03:35:46;7.30;99.90
59469;DHT22;45277;52.768;18.262;2024-03-22T03:37:18;7.30;99.90
59469;DHT22;45277;52.768;18.262;2024-03-22T03:38:49;7.30;99.90
59469;DHT22;45277;52.768;18.262;2024-03-22T03:40:20;7.30;99.90
59469;DHT22;45277;52.768;18.262;2024-03-22T03:41:52;7.30;99.90
59469;DHT22;45277;52.768;18.262;2024-03-22T03:43:24;7.30;99.90
59469;DHT22;45277;52.768;18.262;2024-03-22T03:44:55;7.30;99.90
59469;DHT22;45277;52.768;18.262;2024-03-22T03:46:26;7.30;99.90
59469;DHT22;45277;52.768;18.262;2024-03-22T03:47:58;7.30;99.90
59469;DHT22;45277;52.768;18.262;2024-03-22T03:49:29;7.30;99.90
59469;DHT22;45277;52.768;18.262;2024-03-22T03:51:00;7.30;99.90
59469;DHT22;45277;52.768;18.262;2024-03-22T03:52:34;7.30;99.90
59469;DHT22;45277;52.768;18.262;2024-03-22T03:54:05;7.30;99.90
59469;DHT22;45277;52.768;18.262;2024-03-22T03:55:36;7.30;99.90
59469;DHT22;45277;52.768;18.262;2024-03-22T03:57:08;7.30;99.90
59469;DHT22;45277;52.768;18.262;2024-03-22T03:58:39;7.20;99.90
59469;DHT22;45277;52.768;18.262;2024-03-22T04:00:11;7.30;99.90
59469;DHT22;45277;52.768;18.262;2024-03-22T04:01:42;7.20;99.90
59469;DHT22;45277;52.768;18.262;2024-03-22T04:03:14;7.20;99.90
59469;DHT22;45277;52.768;18.262;2024-03-22T04:04:45;7.20;99.90
59469;DHT22;45277;52.768;18.262;2024-03-22T04:06:16;7.20;99.90
59469;DHT22;45277;52.768;18.262;2024-03-22T04:07:48;7.20;99.90
59469;DHT22;45277;52.768;18.262;2024-03-22T04:09:19;7.20;99.90
59469;DHT22;45277;52.768;18.262;2024-03-22T04:10:53;7.20;99.90
59469;DHT22;45277;52.768;18.262;2024-03-22T04:12:28;7.20;99.90
59469;DHT22;45277;52.768;18.262;2024-03-22T04:13:59;7.20;99.90
59469;DHT22;45277;52.768;18.262;2024-03-22T04:15:34;7.20;99.90
59469;DHT22;45277;52.768;18.262;2024-03-22T04:17:06;7.20;99.90
59469;DHT22;45277;52.768;18.262;2024-03-22T04:18:37;7.20;99.90
59469;DHT22;45277;52.768;18.262;2024-03-22T04:20:09;7.20;99.90
59469;DHT22;45277;52.768;18.262;2024-03-22T04:21:42;7.10;99.90
59469;DHT22;45277;52.768;18.262;2024-03-22T04:23:13;7.10;99.90
59469;DHT22;45277;52.768;18.262;2024-03-22T04:24:44;7.10;99.90
59469;DHT22;45277;52.768;18.262;2024-03-22T04:26:16;7.10;99.90
59469;DHT22;45277;52.768;18.262;2024-03-22T04:27:47;7.10;99.90
59469;DHT22;45277;52.768;18.262;2024-03-22T04:29:18;7.00;99.90
59469;DHT22;45277;52.768;18.262;2024-03-22T04:31:02;7.00;99.90
59469;DHT22;45277;52.768;18.262;2024-03-22T04:32:33;7.00;99.90
59469;DHT22;45277;52.768;18.262;2024-03-22T04:34:05;7.00;99.90
59469;DHT22;45277;52.768;18.262;2024-03-22T04:35:45;7.00;99.90
59469;DHT22;45277;52.768;18.262;2024-03-22T04:37:16;7.00;99.90
59469;DHT22;45277;52.768;18.262;2024-03-22T04:38:48;7.00;99.90
59469;DHT22;45277;52.768;18.262;2024-03-22T04:40:19;7.00;99.90
59469;DHT22;45277;52.768;18.262;2024-03-22T04:41:51;7.00;99.90
59469;DHT22;45277;52.768;18.262;2024-03-22T04:43:23;6.90;99.90
59469;DHT22;45277;52.768;18.262;2024-03-22T04:44:55;7.00;99.90
59469;DHT22;45277;52.768;18.262;2024-03-22T04:46:26;6.90;99.90
59469;DHT22;45277;52.768;18.262;2024-03-22T04:47:57;6.90;99.90
59469;DHT22;45277;52.768;18.262;2024-03-22T04:49:29;6.90;99.90
59469;DHT22;45277;52.768;18.262;2024-03-22T04:51:00;6.90;99.90
59469;DHT22;45277;52.768;18.262;2024-03-22T04:52:31;6.80;99.90
59469;DHT22;45277;52.768;18.262;2024-03-22T04:54:02;6.80;99.90
59469;DHT22;45277;52.768;18.262;2024-03-22T04:55:34;6.80;99.90
59469;DHT22;45277;52.768;18.262;2024-03-22T04:57:05;6.80;99.90
59469;DHT22;45277;52.768;18.262;2024-03-22T04:58:36;6.70;99.90
59469;DHT22;45277;52.768;18.262;2024-03-22T05:00:08;6.70;99.90
59469;DHT22;45277;52.768;18.262;2024-03-22T05:01:39;6.70;99.90
59469;DHT22;45277;52.768;18.262;2024-03-22T05:03:11;6.60;99.90
59469;DHT22;45277;52.768;18.262;2024-03-22T05:04:42;6.70;99.90
59469;DHT22;45277;52.768;18.262;2024-03-22T05:06:13;6.70;99.90
59469;DHT22;45277;52.768;18.262;2024-03-22T05:07:45;6.70;99.90
59469;DHT22;45277;52.768;18.262;2024-03-22T05:09:16;6.70;99.90
59469;DHT22;45277;52.768;18.262;2024-03-22T05:10:47;6.60;99.90
59469;DHT22;45277;52.768;18.262;2024-03-22T05:12:19;6.70;99.90
59469;DHT22;45277;52.768;18.262;2024-03-22T05:13:50;6.60;99.90
59469;DHT22;45277;52.768;18.262;2024-03-22T05:15:22;6.60;99.90
59469;DHT22;45277;52.768;18.262;2024-03-22T05:16:53;6.60;99.90
59469;DHT22;45277;52.768;18.262;2024-03-22T05:18:25;6.60;99.90
59469;DHT22;45277;52.768;18.262;2024-03-22T05:19:56;6.60;99.90
59469;DHT22;45277;52.768;18.262;2024-03-22T05:21:27;6.60;99.90
59469;DHT22;45277;52.768;18.262;2024-03-22T05:22:58;6.60;99.90
59469;DHT22;45277;52.768;18.262;2024-03-22T05:24:30;6.60;99.90
59469;DHT22;45277;52.768;18.262;2024-03-22T05:26:01;6.60;99.90
59469;DHT22;45277;52.768;18.262;2024-03-22T05:27:33;6.60;99.90
59469;DHT22;45277;52.768;18.262;2024-03-22T05:29:05;6.60;99.90
59469;DHT22;45277;52.768;18.262;2024-03-22T05:30:36;6.60;99.90
59469;DHT22;45277;52.768;18.262;2024-03-22T05:32:07;6.60;99.90
59469;DHT22;45277;52.768;18.262;2024-03-22T05:33:38;6.70;99.90
59469;DHT22;45277;52.768;18.262;2024-03-22T05:35:10;6.70;99.90
59469;DHT22;45277;52.768;18.262;2024-03-22T05:36:41;6.70;99.90
59469;DHT22;45277;52.768;18.262;2024-03-22T05:38:12;6.70;99.90
59469;DHT22;45277;52.768;18.262;2024-03-22T05:39:44;6.70;99.90
59469;DHT22;45277;52.768;18.262;2024-03-22T05:41:15;6.70;99.90
59469;DHT22;45277;52.768;18.262;2024-03-22T05:42:46;6.80;99.90
59469;DHT22;45277;52.768;18.262;2024-03-22T05:44:18;6.80;99.90
59469;DHT22;45277;52.768;18.262;2024-03-22T05:45:49;6.90;99.90
59469;DHT22;45277;52.768;18.262;2024-03-22T05:47:20;6.90;99.90
59469;DHT22;45277;52.768;18.262;2024-03-22T05:48:52;7.00;99.90
59469;DHT22;45277;52.768;18.262;2024-03-22T05:50:23;7.10;99.90
59469;DHT22;45277;52.768;18.262;2024-03-22T05:51:54;7.10;99.90
59469;DHT22;45277;52.768;18.262;2024-03-22T05:53:25;7.10;99.90
59469;DHT22;45277;52.768;18.262;2024-03-22T05:54:57;7.10;99.90
59469;DHT22;45277;52.768;18.262;2024-03-22T05:56:28;7.10;99.90
59469;DHT22;45277;52.768;18.262;2024-03-22T05:57:59;7.20;99.90
59469;DHT22;45277;52.768;18.262;2024-03-22T05:59:31;7.20;99.90
59469;DHT22;45277;52.768;18.262;2024-03-22T06:01:03;7.20;99.90
59469;DHT22;45277;52.768;18.262;2024-03-22T06:02:34;7.10;99.90
59469;DHT22;45277;52.768;18.262;2024-03-22T06:04:05;7.10;99.90
59469;DHT22;45277;52.768;18.262;2024-03-22T06:05:37;7.10;99.90
59469;DHT22;45277;52.768;18.262;2024-03-22T06:07:09;7.10;99.90
59469;DHT22;45277;52.768;18.262;2024-03-22T06:08:41;7.10;99.90
59469;DHT22;45277;52.768;18.262;2024-03-22T06:10:14;7.10;99.90
59469;DHT22;45277;52.768;18.262;2024-03-22T06:11:45;7.10;99.90
59469;DHT22;45277;52.768;18.262;2024-03-22T06:13:17;7.10;99.90
59469;DHT22;45277;52.768;18.262;2024-03-22T06:14:48;7.10;99.90
59469;DHT22;45277;52.768;18.262;2024-03-22T06:16:19;7.10;99.90
59469;DHT22;45277;52.768;18.262;2024-03-22T06:17:51;7.10;99.90
59469;DHT22;45277;52.768;18.262;2024-03-22T06:19:22;7.00;99.90
59469;DHT22;45277;52.768;18.262;2024-03-22T06:20:54;7.10;99.90
59469;DHT22;45277;52.768;18.262;2024-03-22T06:22:26;7.20;99.90
59469;DHT22;45277;52.768;18.262;2024-03-22T06:23:57;7.20;99.90
59469;DHT22;45277;52.768;18.262;2024-03-22T06:25:28;7.20;99.90
59469;DHT22;45277;52.768;18.262;2024-03-22T06:27:00;7.30;99.90
59469;DHT22;45277;52.768;18.262;2024-03-22T06:28:31;7.40;99.90
59469;DHT22;45277;52.768;18.262;2024-03-22T06:30:03;7.50;99.90
59469;DHT22;45277;52.768;18.262;2024-03-22T06:31:34;7.50;99.90
59469;DHT22;45277;52.768;18.262;2024-03-22T06:33:05;7.60;99.90
59469;DHT22;45277;52.768;18.262;2024-03-22T06:34:37;7.70;99.90
59469;DHT22;45277;52.768;18.262;2024-03-22T06:36:09;7.70;99.90
59469;DHT22;45277;52.768;18.262;2024-03-22T06:37:40;7.80;99.90
59469;DHT22;45277;52.768;18.262;2024-03-22T06:39:12;7.90;99.90
59469;DHT22;45277;52.768;18.262;2024-03-22T06:40:43;7.90;99.90
59469;DHT22;45277;52.768;18.262;2024-03-22T06:42:14;7.90;99.90
59469;DHT22;45277;52.768;18.262;2024-03-22T06:43:45;7.90;99.90
59469;DHT22;45277;52.768;18.262;2024-03-22T06:45:17;7.80;99.90
59469;DHT22;45277;52.768;18.262;2024-03-22T06:46:48;7.70;99.90
59469;DHT22;45277;52.768;18.262;2024-03-22T06:48:19;7.70;99.90
59469;DHT22;45277;52.768;18.262;2024-03-22T06:49:50;7.70;99.90
59469;DHT22;45277;52.768;18.262;2024-03-22T06:51:22;7.60;99.90
59469;DHT22;45277;52.768;18.262;2024-03-22T06:52:56;7.60;99.90
59469;DHT22;45277;52.768;18.262;2024-03-22T06:54:27;7.50;99.90
59469;DHT22;45277;52.768;18.262;2024-03-22T06:55:58;7.50;99.90
59469;DHT22;45277;52.768;18.262;2024-03-22T06:57:30;7.60;99.90
59469;DHT22;45277;52.768;18.262;2024-03-22T06:59:01;7.50;99.90
59469;DHT22;45277;52.768;18.262;2024-03-22T07:00:32;7.50;99.90
59469;DHT22;45277;52.768;18.262;2024-03-22T07:02:05;7.50;99.90
59469;DHT22;45277;52.768;18.262;2024-03-22T07:03:36;7.40;99.90
59469;DHT22;45277;52.768;18.262;2024-03-22T07:05:08;7.40;99.90
59469;DHT22;45277;52.768;18.262;2024-03-22T07:06:40;7.40;99.90
59469;DHT22;45277;52.768;18.262;2024-03-22T07:08:13;7.40;99.90
59469;DHT22;45277;52.768;18.262;2024-03-22T07:09:44;7.40;99.90
59469;DHT22;45277;52.768;18.262;2024-03-22T07:11:17;7.40;99.90
59469;DHT22;45277;52.768;18.262;2024-03-22T07:12:48;7.40;99.90
59469;DHT22;45277;52.768;18.262;2024-03-22T07:14:19;7.40;99.90
59469;DHT22;45277;52.768;18.262;2024-03-22T07:15:51;7.40;99.90
59469;DHT22;45277;52.768;18.262;2024-03-22T07:17:22;7.50;99.90
59469;DHT22;45277;52.768;18.262;2024-03-22T07:18:55;7.50;99.90
59469;DHT22;45277;52.768;18.262;2024-03-22T07:20:26;7.50;99.90
59469;DHT22;45277;52.768;18.262;2024-03-22T07:21:57;7.60;99.90
59469;DHT22;45277;52.768;18.262;2024-03-22T07:23:30;7.50;99.90
59469;DHT22;45277;52.768;18.262;2024-03-22T07:25:02;7.60;99.90
59469;DHT22;45277;52.768;18.262;2024-03-22T07:26:33;7.60;99.90
59469;DHT22;45277;52.768;18.262;2024-03-22T07:28:04;7.60;99.90
59469;DHT22;45277;52.768;18.262;2024-03-22T07:29:36;7.60;99.90
59469;DHT22;45277;52.768;18.262;2024-03-22T07:31:07;7.70;99.90
59469;DHT22;45277;52.768;18.262;2024-03-22T07:32:38;7.60;99.90
59469;DHT22;45277;52.768;18.262;2024-03-22T07:34:10;7.70;99.90
59469;DHT22;45277;52.768;18.262;2024-03-22T07:35:41;7.70;99.90
59469;DHT22;45277;52.768;18.262;2024-03-22T07:37:12;7.70;99.90
59469;DHT22;45277;52.768;18.262;2024-03-22T07:38:44;7.70;99.90
59469;DHT22;45277;52.768;18.262;2024-03-22T07:40:15;7.70;99.90
59469;DHT22;45277;52.768;18.262;2024-03-22T07:41:46;7.70;99.90
59469;DHT22;45277;52.768;18.262;2024-03-22T07:43:17;7.70;99.90
59469;DHT22;45277;52.768;18.262;2024-03-22T07:44:49;7.70;99.90
59469;DHT22;45277;52.768;18.262;2024-03-22T07:46:20;7.80;99.90
59469;DHT22;45277;52.768;18.262;2024-03-22T07:47:52;7.90;99.90
59469;DHT22;45277;52.768;18.262;2024-03-22T07:49:23;7.80;99.90
59469;DHT22;45277;52.768;18.262;2024-03-22T07:50:58;7.80;99.90
59469;DHT22;45277;52.768;18.262;2024-03-22T07:52:29;7.80;99.90
59469;DHT22;45277;52.768;18.262;2024-03-22T07:54:01;7.90;99.90
59469;DHT22;45277;52.768;18.262;2024-03-22T07:55:33;7.90;99.90
59469;DHT22;45277;52.768;18.262;2024-03-22T07:57:05;7.80;99.90
59469;DHT22;45277;52.768;18.262;2024-03-22T07:58:36;7.80;99.90
59469;DHT22;45277;52.768;18.262;2024-03-22T08:00:08;7.90;99.90
59469;DHT22;45277;52.768;18.262;2024-03-22T08:01:39;7.90;99.90
59469;DHT22;45277;52.768;18.262;2024-03-22T08:03:15;7.90;99.90
59469;DHT22;45277;52.768;18.262;2024-03-22T08:04:47;7.90;99.90
59469;DHT22;45277;52.768;18.262;2024-03-22T08:06:18;7.90;99.90
59469;DHT22;45277;52.768;18.262;2024-03-22T08:07:49;8.00;99.90
59469;DHT22;45277;52.768;18.262;2024-03-22T08:09:20;8.00;99.90
59469;DHT22;45277;52.768;18.262;2024-03-22T08:10:51;8.00;99.90
59469;DHT22;45277;52.768;18.262;2024-03-22T08:12:23;8.00;99.90
59469;DHT22;45277;52.768;18.262;2024-03-22T08:13:55;8.10;99.90
59469;DHT22;45277;52.768;18.262;2024-03-22T08:15:32;8.20;99.90
59469;DHT22;45277;52.768;18.262;2024-03-22T08:17:04;8.20;99.90
59469;DHT22;45277;52.768;18.262;2024-03-22T08:18:35;8.30;99.90
59469;DHT22;45277;52.768;18.262;2024-03-22T08:20:07;8.30;99.90
59469;DHT22;45277;52.768;18.262;2024-03-22T08:21:38;8.30;99.90
59469;DHT22;45277;52.768;18.262;2024-03-22T08:23:09;8.30;99.90
59469;DHT22;45277;52.768;18.262;2024-03-22T08:24:41;8.30;99.90
59469;DHT22;45277;52.768;18.262;2024-03-22T08:26:12;8.30;99.90
59469;DHT22;45277;52.768;18.262;2024-03-22T08:27:44;8.30;99.90
59469;DHT22;45277;52.768;18.262;2024-03-22T08:29:16;8.30;99.90
59469;DHT22;45277;52.768;18.262;2024-03-22T08:30:47;8.30;99.90
59469;DHT22;45277;52.768;18.262;2024-03-22T08:32:19;8.30;99.90
59469;DHT22;45277;52.768;18.262;2024-03-22T08:33:50;8.30;99.90
59469;DHT22;45277;52.768;18.262;2024-03-22T08:35:21;8.30;99.90
59469;DHT22;45277;52.768;18.262;2024-03-22T08:36:53;8.30;99.90
59469;DHT22;45277;52.768;18.262;2024-03-22T08:38:24;8.40;99.90
59469;DHT22;45277;52.768;18.262;2024-03-22T08:39:55;8.50;99.90
59469;DHT22;45277;52.768;18.262;2024-03-22T08:41:26;8.70;99.90
59469;DHT22;45277;52.768;18.262;2024-03-22T08:42:58;8.70;99.90
59469;DHT22;45277;52.768;18.262;2024-03-22T08:44:29;8.70;99.90
59469;DHT22;45277;52.768;18.262;2024-03-22T08:46:01;8.70;99.90
59469;DHT22;45277;52.768;18.262;2024-03-22T08:47:32;8.70;99.90
59469;DHT22;45277;52.768;18.262;2024-03-22T08:49:06;8.70;99.90
59469;DHT22;45277;52.768;18.262;2024-03-22T08:50:37;8.70;99.90
59469;DHT22;45277;52.768;18.262;2024-03-22T08:52:09;8.70;99.90
59469;DHT22;45277;52.768;18.262;2024-03-22T08:53:40;8.60;99.90
59469;DHT22;45277;52.768;18.262;2024-03-22T08:55:11;8.60;99.90
59469;DHT22;45277;52.768;18.262;2024-03-22T08:56:44;8.60;99.90
59469;DHT22;45277;52.768;18.262;2024-03-22T08:58:15;8.70;99.90
59469;DHT22;45277;52.768;18.262;2024-03-22T08:59:48;8.90;99.90
59469;DHT22;45277;52.768;18.262;2024-03-22T09:01:19;9.10;99.90
59469;DHT22;45277;52.768;18.262;2024-03-22T09:02:50;9.30;99.90
59469;DHT22;45277;52.768;18.262;2024-03-22T09:21:35;9.90;99.90
59469;DHT22;45277;52.768;18.262;2024-03-22T09:23:07;10.70;99.90
59469;DHT22;45277;52.768;18.262;2024-03-22T09:24:38;10.80;99.90
59469;DHT22;45277;52.768;18.262;2024-03-22T09:26:09;11.00;99.90
59469;DHT22;45277;52.768;18.262;2024-03-22T09:27:41;10.90;99.90
59469;DHT22;45277;52.768;18.262;2024-03-22T09:29:16;10.90;99.90
59469;DHT22;45277;52.768;18.262;2024-03-22T09:30:47;10.90;99.90
59469;DHT22;45277;52.768;18.262;2024-03-22T09:32:19;10.90;99.90
59469;DHT22;45277;52.768;18.262;2024-03-22T09:33:50;10.90;99.90
59469;DHT22;45277;52.768;18.262;2024-03-22T09:35:22;11.00;99.90
59469;DHT22;45277;52.768;18.262;2024-03-22T09:36:53;11.10;99.90
59469;DHT22;45277;52.768;18.262;2024-03-22T09:38:25;11.20;99.90
59469;DHT22;45277;52.768;18.262;2024-03-22T09:39:56;11.30;99.90
59469;DHT22;45277;52.768;18.262;2024-03-22T09:41:27;11.20;99.90
59469;DHT22;45277;52.768;18.262;2024-03-22T09:43:02;11.00;99.90
59469;DHT22;45277;52.768;18.262;2024-03-22T09:44:35;10.90;99.90
59469;DHT22;45277;52.768;18.262;2024-03-22T09:46:08;10.90;99.90
59469;DHT22;45277;52.768;18.262;2024-03-22T09:47:40;11.00;99.90
59469;DHT22;45277;52.768;18.262;2024-03-22T09:49:12;11.00;99.90
59469;DHT22;45277;52.768;18.262;2024-03-22T09:50:45;11.00;99.90
59469;DHT22;45277;52.768;18.262;2024-03-22T09:52:19;11.00;99.90
59469;DHT22;45277;52.768;18.262;2024-03-22T09:53:52;11.10;99.90
59469;DHT22;45277;52.768;18.262;2024-03-22T09:55:24;11.30;99.90